createdAt,value
2023-06-10T00:00:27.473Z,15.10
2023-06-10T00:01:00.153Z,15.10
2023-06-10T00:01:32.829Z,15.10
2023-06-10T00:02:05.504Z,15.10
2023-06-10T00:02:38.203Z,15.10
2023-06-10T00:03:11.008Z,15.11
2023-06-10T00:03:43.850Z,15.13
2023-06-10T00:04:16.666Z,15.11
2023-06-10T00:04:49.514Z,15.11
2023-06-10T00:05:22.236Z,15.11
2023-06-10T00:05:54.897Z,15.07
2023-06-10T00:06:27.586Z,15.09
2023-06-10T00:07:00.272Z,15.09
2023-06-10T00:07:32.926Z,15.06
2023-06-10T00:08:05.604Z,15.07
2023-06-10T00:08:38.285Z,15.09
2023-06-10T00:09:10.955Z,15.09
2023-06-10T00:09:43.622Z,15.09
2023-06-10T00:10:16.292Z,15.09
2023-06-10T00:10:48.960Z,15.11
2023-06-10T00:11:21.650Z,15.14
2023-06-10T00:11:54.354Z,15.10
2023-06-10T00:12:27.010Z,15.10
2023-06-10T00:12:59.680Z,15.11
2023-06-10T00:13:32.375Z,15.10
2023-06-10T00:14:05.011Z,15.09
2023-06-10T00:14:37.676Z,14.99
2023-06-10T00:15:10.569Z,14.96
2023-06-10T00:15:36.910Z,14.96
2023-06-10T00:16:09.721Z,14.98
2023-06-10T00:16:42.627Z,14.98
2023-06-10T00:17:15.320Z,14.98
2023-06-10T00:17:47.984Z,14.98
2023-06-10T00:18:20.640Z,14.99
2023-06-10T00:18:53.309Z,15.01
2023-06-10T00:19:25.975Z,15.01
2023-06-10T00:19:58.651Z,15.02
2023-06-10T00:20:31.317Z,15.06
2023-06-10T00:21:03.976Z,15.06
2023-06-10T00:21:36.679Z,15.07
2023-06-10T00:22:09.339Z,15.02
2023-06-10T00:22:42.006Z,15.03
2023-06-10T00:23:14.669Z,15.02
2023-06-10T00:23:47.375Z,15.03
2023-06-10T00:24:20.127Z,15.02
2023-06-10T00:24:52.808Z,15.02
2023-06-10T00:25:25.472Z,15.01
2023-06-10T00:25:58.140Z,15.02
2023-06-10T00:26:30.830Z,15.03
2023-06-10T00:27:03.506Z,15.03
2023-06-10T00:27:36.298Z,15.06
2023-06-10T00:28:09.119Z,15.07
2023-06-10T00:28:41.780Z,15.02
2023-06-10T00:29:14.439Z,15.03
2023-06-10T00:29:47.102Z,15.01
2023-06-10T00:30:19.775Z,14.99
2023-06-10T00:30:52.448Z,15.01
2023-06-10T00:31:25.182Z,14.92
2023-06-10T00:31:57.925Z,14.88
2023-06-10T00:32:30.587Z,14.89
2023-06-10T00:33:03.297Z,14.88
2023-06-10T00:33:35.972Z,14.84
2023-06-10T00:34:08.641Z,14.81
2023-06-10T00:34:41.305Z,14.84
2023-06-10T00:35:13.978Z,14.83
2023-06-10T00:35:46.655Z,14.86
2023-06-10T00:36:19.358Z,14.88
2023-06-10T00:36:52.018Z,14.89
2023-06-10T00:37:24.678Z,14.91
2023-06-10T00:37:57.354Z,14.92
2023-06-10T00:38:30.050Z,14.92
2023-06-10T00:39:02.697Z,14.92
2023-06-10T00:39:35.378Z,14.96
2023-06-10T00:40:08.063Z,14.94
2023-06-10T00:40:40.709Z,14.95
2023-06-10T00:41:13.412Z,14.94
2023-06-10T00:41:46.070Z,14.95
2023-06-10T00:42:18.731Z,14.96
2023-06-10T00:42:51.431Z,14.98
2023-06-10T00:43:22.535Z,15.02
2023-06-10T00:43:55.227Z,14.99
2023-06-10T00:44:27.901Z,15.02
2023-06-10T00:45:00.545Z,15.01
2023-06-10T00:45:33.233Z,15.03
2023-06-10T00:46:05.984Z,15.01
2023-06-10T00:46:38.700Z,14.96
2023-06-10T00:47:11.335Z,14.95
2023-06-10T00:47:44.069Z,14.95
2023-06-10T00:48:16.743Z,14.94
2023-06-10T00:48:49.423Z,14.91
2023-06-10T00:49:22.102Z,14.91
2023-06-10T00:49:54.770Z,14.91
2023-06-10T00:50:27.453Z,14.88
2023-06-10T00:51:00.122Z,14.91
2023-06-10T00:51:32.788Z,14.92
2023-06-10T00:52:05.459Z,14.91
2023-06-10T00:52:38.141Z,14.89
2023-06-10T00:53:10.816Z,14.88
2023-06-10T00:53:43.501Z,14.86
2023-06-10T00:54:16.190Z,14.89
2023-06-10T00:54:48.850Z,14.86
2023-06-10T00:55:21.520Z,14.83
2023-06-10T00:55:54.189Z,14.83
2023-06-10T00:56:26.892Z,14.77
2023-06-10T00:56:59.555Z,14.65
2023-06-10T00:57:32.224Z,14.60
2023-06-10T00:58:04.930Z,14.62
2023-06-10T00:58:37.581Z,14.61
2023-06-10T00:59:04.495Z,14.62
2023-06-10T00:59:37.142Z,14.61
2023-06-10T01:00:09.972Z,14.58
2023-06-10T01:00:42.700Z,14.60
2023-06-10T01:01:15.500Z,14.60
2023-06-10T01:01:48.281Z,14.60
2023-06-10T01:02:21.118Z,14.60
2023-06-10T01:02:54.000Z,14.60
2023-06-10T01:03:27.011Z,14.62
2023-06-10T01:03:53.224Z,14.61
2023-06-10T01:04:25.911Z,14.60
2023-06-10T01:04:58.599Z,14.61
2023-06-10T01:05:31.245Z,14.64
2023-06-10T01:06:03.907Z,14.62
2023-06-10T01:06:36.599Z,14.62
2023-06-10T01:07:09.268Z,14.62
2023-06-10T01:07:41.931Z,14.61
2023-06-10T01:08:14.617Z,14.61
2023-06-10T01:08:47.277Z,14.61
2023-06-10T01:09:19.959Z,14.61
2023-06-10T01:09:52.620Z,14.61
2023-06-10T01:10:25.281Z,14.61
2023-06-10T01:10:57.945Z,14.62
2023-06-10T01:11:30.620Z,14.61
2023-06-10T01:12:03.295Z,14.62
2023-06-10T01:12:35.952Z,14.64
2023-06-10T01:13:08.617Z,14.62
2023-06-10T01:13:41.283Z,14.62
2023-06-10T01:14:13.987Z,14.60
2023-06-10T01:14:46.626Z,14.58
2023-06-10T01:15:19.311Z,14.57
2023-06-10T01:15:51.976Z,14.57
2023-06-10T01:16:24.679Z,14.57
2023-06-10T01:16:57.382Z,14.57
2023-06-10T01:17:30.072Z,14.58
2023-06-10T01:18:02.848Z,14.60
2023-06-10T01:18:35.633Z,14.62
2023-06-10T01:19:08.295Z,14.61
2023-06-10T01:19:40.964Z,14.61
2023-06-10T01:20:13.643Z,14.62
2023-06-10T01:20:46.311Z,14.61
2023-06-10T01:21:19.012Z,14.62
2023-06-10T01:21:51.684Z,14.64
2023-06-10T01:22:24.382Z,14.62
2023-06-10T01:22:51.152Z,14.65
2023-06-10T01:23:23.834Z,14.68
2023-06-10T01:23:56.513Z,14.68
2023-06-10T01:24:29.219Z,14.68
2023-06-10T01:25:01.872Z,14.69
2023-06-10T01:25:34.537Z,14.72
2023-06-10T01:26:07.216Z,14.70
2023-06-10T01:26:39.888Z,14.70
2023-06-10T01:27:12.569Z,14.70
2023-06-10T01:27:45.225Z,14.72
2023-06-10T01:28:17.898Z,14.68
2023-06-10T01:28:50.560Z,14.69
2023-06-10T01:29:23.334Z,14.68
2023-06-10T01:29:55.975Z,14.70
2023-06-10T01:30:28.640Z,14.70
2023-06-10T01:31:01.354Z,14.68
2023-06-10T01:31:34.120Z,14.68
2023-06-10T01:32:06.767Z,14.65
2023-06-10T01:32:39.490Z,14.62
2023-06-10T01:33:12.181Z,14.61
2023-06-10T01:33:44.851Z,14.61
2023-06-10T01:34:17.576Z,14.61
2023-06-10T01:34:50.269Z,14.58
2023-06-10T01:35:22.943Z,14.51
2023-06-10T01:35:55.868Z,14.50
2023-06-10T01:36:28.518Z,14.47
2023-06-10T01:37:01.193Z,14.47
2023-06-10T01:37:33.850Z,14.45
2023-06-10T01:38:06.578Z,14.47
2023-06-10T01:38:39.298Z,14.46
2023-06-10T01:39:11.993Z,14.45
2023-06-10T01:39:44.661Z,14.43
2023-06-10T01:40:17.335Z,14.42
2023-06-10T01:40:50.001Z,14.42
2023-06-10T01:41:22.698Z,14.42
2023-06-10T01:41:55.379Z,14.42
2023-06-10T01:42:28.044Z,14.40
2023-06-10T01:43:00.718Z,14.42
2023-06-10T01:43:33.377Z,14.43
2023-06-10T01:44:06.056Z,14.43
2023-06-10T01:44:38.736Z,14.46
2023-06-10T01:45:11.534Z,14.46
2023-06-10T01:45:44.316Z,14.47
2023-06-10T01:46:17.018Z,14.50
2023-06-10T01:46:49.859Z,14.47
2023-06-10T01:47:22.603Z,14.52
2023-06-10T01:47:55.282Z,14.50
2023-06-10T01:48:27.947Z,14.51
2023-06-10T01:49:00.624Z,14.50
2023-06-10T01:49:33.281Z,14.50
2023-06-10T01:50:05.959Z,14.50
2023-06-10T01:50:38.619Z,14.50
2023-06-10T01:51:11.299Z,14.51
2023-06-10T01:51:42.399Z,14.50
2023-06-10T01:52:15.073Z,14.47
2023-06-10T01:52:47.732Z,14.46
2023-06-10T01:53:20.406Z,14.45
2023-06-10T01:53:53.076Z,14.42
2023-06-10T01:54:25.748Z,14.39
2023-06-10T01:54:58.425Z,14.37
2023-06-10T01:55:31.103Z,14.36
2023-06-10T01:56:03.781Z,14.36
2023-06-10T01:56:36.459Z,14.35
2023-06-10T01:57:09.124Z,14.35
2023-06-10T01:57:41.790Z,14.35
2023-06-10T01:58:14.480Z,14.35
2023-06-10T01:58:47.161Z,14.35
2023-06-10T01:59:19.851Z,14.33
2023-06-10T01:59:52.545Z,14.33
2023-06-10T02:00:25.223Z,14.22
2023-06-10T02:00:57.957Z,14.18
2023-06-10T02:01:30.716Z,14.15
2023-06-10T02:02:03.385Z,14.14
2023-06-10T02:02:36.118Z,14.14
2023-06-10T02:03:08.899Z,14.14
2023-06-10T02:03:41.649Z,14.12
2023-06-10T02:04:14.315Z,14.10
2023-06-10T02:04:46.987Z,14.09
2023-06-10T02:05:19.655Z,14.09
2023-06-10T02:05:52.323Z,14.10
2023-06-10T02:06:25.026Z,14.10
2023-06-10T02:06:57.712Z,14.09
2023-06-10T02:07:30.401Z,14.06
2023-06-10T02:08:01.484Z,14.04
2023-06-10T02:08:34.164Z,14.03
2023-06-10T02:09:06.834Z,14.04
2023-06-10T02:09:39.515Z,14.03
2023-06-10T02:10:12.207Z,14.04
2023-06-10T02:10:44.892Z,14.04
2023-06-10T02:11:17.584Z,14.04
2023-06-10T02:11:50.244Z,14.07
2023-06-10T02:12:22.970Z,14.06
2023-06-10T02:12:55.602Z,14.07
2023-06-10T02:13:28.268Z,14.06
2023-06-10T02:14:00.945Z,14.06
2023-06-10T02:14:33.620Z,14.06
2023-06-10T02:15:06.611Z,14.09
2023-06-10T02:15:32.858Z,14.07
2023-06-10T02:16:05.551Z,14.09
2023-06-10T02:16:38.275Z,14.07
2023-06-10T02:17:10.931Z,14.10
2023-06-10T02:17:43.660Z,14.09
2023-06-10T02:18:16.299Z,14.07
2023-06-10T02:18:48.979Z,14.09
2023-06-10T02:19:21.677Z,14.06
2023-06-10T02:19:54.347Z,14.06
2023-06-10T02:20:27.005Z,14.04
2023-06-10T02:20:59.670Z,14.04
2023-06-10T02:21:32.360Z,14.04
2023-06-10T02:22:05.032Z,14.04
2023-06-10T02:22:37.698Z,14.03
2023-06-10T02:23:10.368Z,14.06
2023-06-10T02:23:43.086Z,14.04
2023-06-10T02:24:15.983Z,14.02
2023-06-10T02:24:48.744Z,13.99
2023-06-10T02:25:21.428Z,13.97
2023-06-10T02:25:54.100Z,13.92
2023-06-10T02:26:26.797Z,13.89
2023-06-10T02:26:59.456Z,13.85
2023-06-10T02:27:32.130Z,13.87
2023-06-10T02:28:04.789Z,13.87
2023-06-10T02:28:37.457Z,13.87
2023-06-10T02:29:10.108Z,13.85
2023-06-10T02:29:42.787Z,13.85
2023-06-10T02:30:15.483Z,13.87
2023-06-10T02:30:48.121Z,13.85
2023-06-10T02:31:20.900Z,13.87
2023-06-10T02:31:53.635Z,13.89
2023-06-10T02:32:26.520Z,13.89
2023-06-10T02:32:59.243Z,13.91
2023-06-10T02:33:31.879Z,13.92
2023-06-10T02:34:04.546Z,13.92
2023-06-10T02:34:37.220Z,13.95
2023-06-10T02:35:10.152Z,13.96
2023-06-10T02:35:36.509Z,13.92
2023-06-10T02:36:09.195Z,13.91
2023-06-10T02:36:41.896Z,13.91
2023-06-10T02:37:14.562Z,13.89
2023-06-10T02:37:47.238Z,13.91
2023-06-10T02:38:19.919Z,13.89
2023-06-10T02:38:52.588Z,13.88
2023-06-10T02:39:25.257Z,13.87
2023-06-10T02:39:57.927Z,13.87
2023-06-10T02:40:30.596Z,13.87
2023-06-10T02:41:03.273Z,13.87
2023-06-10T02:41:35.964Z,13.85
2023-06-10T02:42:08.610Z,13.85
2023-06-10T02:42:41.286Z,13.84
2023-06-10T02:43:12.368Z,13.82
2023-06-10T02:43:45.033Z,13.82
2023-06-10T02:44:17.709Z,13.84
2023-06-10T02:44:50.378Z,13.82
2023-06-10T02:45:23.065Z,13.85
2023-06-10T02:45:55.819Z,13.84
2023-06-10T02:46:28.602Z,13.85
2023-06-10T02:47:01.282Z,13.82
2023-06-10T02:47:33.986Z,13.84
2023-06-10T02:48:06.686Z,13.81
2023-06-10T02:48:39.340Z,13.79
2023-06-10T02:49:12.043Z,13.79
2023-06-10T02:49:44.731Z,13.81
2023-06-10T02:50:17.378Z,13.78
2023-06-10T02:50:50.043Z,13.75
2023-06-10T02:51:22.730Z,13.75
2023-06-10T02:51:55.420Z,13.75
2023-06-10T02:52:28.085Z,13.77
2023-06-10T02:53:00.799Z,13.75
2023-06-10T02:53:33.483Z,13.78
2023-06-10T02:54:06.164Z,13.77
2023-06-10T02:54:38.833Z,13.78
2023-06-10T02:55:11.773Z,13.79
2023-06-10T02:55:38.082Z,13.81
2023-06-10T02:56:10.755Z,13.82
2023-06-10T02:56:43.448Z,13.82
2023-06-10T02:57:16.125Z,13.82
2023-06-10T02:57:48.804Z,13.82
2023-06-10T02:58:21.478Z,13.82
2023-06-10T02:58:54.138Z,13.82
2023-06-10T02:59:26.811Z,13.82
2023-06-10T02:59:59.469Z,13.84
2023-06-10T03:00:32.187Z,13.79
2023-06-10T03:01:04.894Z,13.78
2023-06-10T03:01:37.646Z,13.75
2023-06-10T03:02:10.289Z,13.78
2023-06-10T03:02:42.995Z,13.78
2023-06-10T03:03:15.665Z,13.77
2023-06-10T03:03:48.369Z,13.77
2023-06-10T03:04:21.143Z,13.75
2023-06-10T03:04:53.872Z,13.73
2023-06-10T03:05:26.550Z,13.75
2023-06-10T03:05:59.210Z,13.70
2023-06-10T03:06:31.892Z,13.66
2023-06-10T03:07:04.586Z,13.63
2023-06-10T03:07:35.656Z,13.60
2023-06-10T03:08:08.334Z,13.55
2023-06-10T03:08:41.000Z,13.49
2023-06-10T03:09:13.670Z,13.46
2023-06-10T03:09:46.339Z,13.45
2023-06-10T03:10:19.011Z,13.45
2023-06-10T03:10:51.679Z,13.45
2023-06-10T03:11:24.370Z,13.45
2023-06-10T03:11:57.072Z,13.48
2023-06-10T03:12:29.723Z,13.49
2023-06-10T03:13:02.397Z,13.49
2023-06-10T03:13:35.073Z,13.51
2023-06-10T03:14:07.734Z,13.49
2023-06-10T03:14:40.411Z,13.48
2023-06-10T03:15:13.278Z,13.48
2023-06-10T03:15:46.041Z,13.46
2023-06-10T03:16:18.775Z,13.48
2023-06-10T03:16:51.494Z,13.48
2023-06-10T03:17:24.181Z,13.48
2023-06-10T03:17:56.960Z,13.49
2023-06-10T03:18:29.726Z,13.46
2023-06-10T03:19:02.423Z,13.48
2023-06-10T03:19:35.079Z,13.49
2023-06-10T03:20:07.758Z,13.51
2023-06-10T03:20:40.417Z,13.51
2023-06-10T03:21:13.095Z,13.55
2023-06-10T03:21:45.758Z,13.55
2023-06-10T03:22:18.428Z,13.57
2023-06-10T03:22:51.093Z,13.59
2023-06-10T03:23:23.769Z,13.62
2023-06-10T03:23:56.494Z,13.59
2023-06-10T03:24:29.138Z,13.59
2023-06-10T03:25:01.812Z,13.59
2023-06-10T03:25:32.905Z,13.57
2023-06-10T03:26:05.574Z,13.54
2023-06-10T03:26:38.267Z,13.52
2023-06-10T03:27:09.360Z,13.52
2023-06-10T03:27:42.031Z,13.52
2023-06-10T03:28:14.692Z,13.55
2023-06-10T03:28:47.381Z,13.55
2023-06-10T03:29:20.040Z,13.59
2023-06-10T03:29:52.710Z,13.55
2023-06-10T03:30:25.391Z,13.59
2023-06-10T03:30:58.082Z,13.59
2023-06-10T03:31:30.782Z,13.62
2023-06-10T03:32:03.477Z,13.60
2023-06-10T03:32:36.160Z,13.63
2023-06-10T03:33:08.868Z,13.60
2023-06-10T03:33:41.520Z,13.62
2023-06-10T03:34:14.191Z,13.62
2023-06-10T03:34:46.881Z,13.60
2023-06-10T03:35:19.539Z,13.62
2023-06-10T03:35:52.222Z,13.63
2023-06-10T03:36:24.904Z,13.63
2023-06-10T03:36:57.601Z,13.66
2023-06-10T03:37:30.263Z,13.66
2023-06-10T03:38:02.930Z,13.67
2023-06-10T03:38:35.608Z,13.67
2023-06-10T03:39:08.282Z,13.70
2023-06-10T03:39:40.961Z,13.66
2023-06-10T03:40:13.633Z,13.62
2023-06-10T03:40:46.292Z,13.60
2023-06-10T03:41:18.966Z,13.62
2023-06-10T03:41:51.646Z,13.59
2023-06-10T03:42:24.315Z,13.59
2023-06-10T03:42:56.985Z,13.59
2023-06-10T03:43:29.660Z,13.59
2023-06-10T03:44:02.335Z,13.57
2023-06-10T03:44:34.999Z,13.57
2023-06-10T03:45:08.129Z,13.54
2023-06-10T03:45:34.776Z,13.55
2023-06-10T03:46:07.517Z,13.54
2023-06-10T03:46:40.206Z,13.54
2023-06-10T03:47:12.869Z,13.54
2023-06-10T03:47:45.595Z,13.54
2023-06-10T03:48:18.262Z,13.55
2023-06-10T03:48:50.926Z,13.57
2023-06-10T03:49:23.586Z,13.60
2023-06-10T03:49:56.268Z,13.63
2023-06-10T03:50:28.970Z,13.63
2023-06-10T03:51:01.631Z,13.64
2023-06-10T03:51:34.309Z,13.64
2023-06-10T03:52:06.985Z,13.63
2023-06-10T03:52:39.665Z,13.62
2023-06-10T03:53:12.331Z,13.62
2023-06-10T03:53:45.014Z,13.63
2023-06-10T03:54:17.696Z,13.64
2023-06-10T03:54:50.354Z,13.66
2023-06-10T03:55:23.020Z,13.66
2023-06-10T03:55:55.684Z,13.66
2023-06-10T03:56:28.376Z,13.66
2023-06-10T03:57:01.051Z,13.66
2023-06-10T03:57:33.714Z,13.64
2023-06-10T03:58:06.410Z,13.64
2023-06-10T03:58:39.075Z,13.66
2023-06-10T03:59:11.724Z,13.67
2023-06-10T03:59:44.385Z,13.67
2023-06-10T04:00:17.058Z,13.69
2023-06-10T04:00:49.725Z,13.69
2023-06-10T04:01:20.855Z,13.69
2023-06-10T04:01:53.548Z,13.67
2023-06-10T04:02:26.303Z,13.66
2023-06-10T04:02:59.211Z,13.64
2023-06-10T04:03:25.592Z,13.66
2023-06-10T04:03:58.237Z,13.66
2023-06-10T04:04:30.898Z,13.66
2023-06-10T04:05:03.588Z,13.67
2023-06-10T04:05:36.274Z,13.67
2023-06-10T04:06:08.977Z,13.67
2023-06-10T04:06:41.673Z,13.67
2023-06-10T04:07:14.333Z,13.69
2023-06-10T04:07:47.125Z,13.71
2023-06-10T04:08:19.800Z,13.73
2023-06-10T04:08:52.470Z,13.71
2023-06-10T04:09:25.141Z,13.79
2023-06-10T04:09:57.830Z,13.78
2023-06-10T04:10:30.497Z,13.81
2023-06-10T04:11:03.164Z,13.84
2023-06-10T04:11:35.845Z,13.84
2023-06-10T04:12:08.534Z,13.84
2023-06-10T04:12:41.198Z,13.87
2023-06-10T04:13:13.867Z,13.91
2023-06-10T04:13:46.548Z,13.88
2023-06-10T04:14:19.220Z,13.91
2023-06-10T04:14:51.887Z,13.96
2023-06-10T04:15:24.577Z,13.96
2023-06-10T04:15:57.243Z,14.00
2023-06-10T04:16:29.942Z,13.96
2023-06-10T04:17:02.626Z,13.92
2023-06-10T04:17:35.344Z,13.88
2023-06-10T04:18:08.038Z,13.89
2023-06-10T04:18:40.723Z,13.88
2023-06-10T04:19:13.421Z,13.88
2023-06-10T04:19:46.091Z,13.87
2023-06-10T04:20:18.768Z,13.89
2023-06-10T04:20:51.432Z,13.91
2023-06-10T04:21:24.156Z,13.92
2023-06-10T04:21:56.816Z,13.96
2023-06-10T04:22:29.508Z,13.96
2023-06-10T04:23:02.207Z,13.96
2023-06-10T04:23:34.857Z,13.96
2023-06-10T04:24:07.584Z,13.96
2023-06-10T04:24:40.273Z,13.97
2023-06-10T04:25:12.977Z,13.97
2023-06-10T04:25:45.638Z,13.97
2023-06-10T04:26:18.333Z,13.99
2023-06-10T04:26:50.994Z,14.00
2023-06-10T04:27:23.672Z,14.04
2023-06-10T04:27:56.337Z,14.03
2023-06-10T04:28:29.014Z,14.04
2023-06-10T04:29:01.703Z,14.03
2023-06-10T04:29:34.355Z,14.03
2023-06-10T04:30:07.076Z,14.02
2023-06-10T04:30:39.735Z,14.03
2023-06-10T04:31:12.418Z,14.03
2023-06-10T04:31:45.132Z,14.00
2023-06-10T04:32:17.791Z,14.04
2023-06-10T04:32:50.544Z,14.06
2023-06-10T04:33:23.206Z,14.03
2023-06-10T04:33:55.884Z,14.06
2023-06-10T04:34:28.567Z,14.04
2023-06-10T04:35:01.258Z,14.06
2023-06-10T04:35:33.902Z,14.10
2023-06-10T04:36:06.567Z,14.10
2023-06-10T04:36:39.246Z,14.14
2023-06-10T04:37:11.913Z,14.14
2023-06-10T04:37:44.570Z,14.15
2023-06-10T04:38:17.254Z,14.17
2023-06-10T04:38:49.918Z,14.18
2023-06-10T04:39:22.579Z,14.18
2023-06-10T04:39:55.255Z,14.20
2023-06-10T04:40:27.922Z,14.20
2023-06-10T04:41:00.641Z,14.21
2023-06-10T04:41:33.323Z,14.20
2023-06-10T04:42:06.060Z,14.21
2023-06-10T04:42:38.744Z,14.24
2023-06-10T04:43:11.416Z,14.25
2023-06-10T04:43:44.068Z,14.25
2023-06-10T04:44:16.743Z,14.27
2023-06-10T04:44:49.411Z,14.28
2023-06-10T04:45:22.094Z,14.28
2023-06-10T04:45:54.770Z,14.33
2023-06-10T04:46:27.487Z,14.33
2023-06-10T04:47:00.289Z,14.35
2023-06-10T04:47:33.079Z,14.35
2023-06-10T04:48:05.743Z,14.36
2023-06-10T04:48:38.452Z,14.36
2023-06-10T04:49:11.124Z,14.37
2023-06-10T04:49:43.787Z,14.39
2023-06-10T04:50:16.460Z,14.42
2023-06-10T04:50:49.124Z,14.42
2023-06-10T04:51:21.818Z,14.43
2023-06-10T04:51:54.488Z,14.45
2023-06-10T04:52:27.155Z,14.42
2023-06-10T04:52:59.816Z,14.43
2023-06-10T04:53:32.485Z,14.43
2023-06-10T04:54:05.303Z,14.39
2023-06-10T04:54:37.983Z,14.39
2023-06-10T04:55:11.036Z,14.36
2023-06-10T04:55:37.383Z,14.39
2023-06-10T04:56:10.058Z,14.36
2023-06-10T04:56:42.720Z,14.35
2023-06-10T04:57:15.397Z,14.35
2023-06-10T04:57:49.127Z,14.35
2023-06-10T04:58:17.169Z,14.32
2023-06-10T04:58:49.854Z,14.32
2023-06-10T04:59:22.545Z,14.33
2023-06-10T04:59:55.206Z,14.35
2023-06-10T05:00:27.890Z,14.36
2023-06-10T05:01:00.607Z,14.37
2023-06-10T05:01:33.328Z,14.37
2023-06-10T05:02:06.058Z,14.39
2023-06-10T05:02:38.754Z,14.43
2023-06-10T05:03:11.554Z,14.45
2023-06-10T05:03:44.273Z,14.43
2023-06-10T05:04:16.948Z,14.45
2023-06-10T05:04:49.640Z,14.43
2023-06-10T05:05:22.305Z,14.42
2023-06-10T05:05:54.976Z,14.42
2023-06-10T05:06:27.658Z,14.40
2023-06-10T05:07:00.325Z,14.43
2023-06-10T05:07:32.992Z,14.43
2023-06-10T05:08:08.552Z,14.42
2023-06-10T05:08:34.973Z,14.46
2023-06-10T05:09:07.620Z,14.47
2023-06-10T05:09:40.277Z,14.47
2023-06-10T05:10:12.949Z,14.51
2023-06-10T05:10:45.618Z,14.51
2023-06-10T05:11:18.304Z,14.52
2023-06-10T05:11:50.982Z,14.57
2023-06-10T05:12:23.663Z,14.58
2023-06-10T05:12:56.322Z,14.61
2023-06-10T05:13:29.004Z,14.64
2023-06-10T05:14:01.672Z,14.64
2023-06-10T05:14:34.339Z,14.68
2023-06-10T05:15:07.287Z,14.70
2023-06-10T05:15:33.565Z,14.72
2023-06-10T05:16:06.281Z,14.72
2023-06-10T05:16:39.006Z,14.75
2023-06-10T05:17:11.683Z,14.78
2023-06-10T05:17:44.385Z,14.80
2023-06-10T05:18:17.088Z,14.81
2023-06-10T05:18:49.762Z,14.84
2023-06-10T05:19:22.444Z,14.86
2023-06-10T05:19:55.103Z,14.88
2023-06-10T05:20:27.906Z,14.91
2023-06-10T05:21:00.560Z,14.94
2023-06-10T05:21:33.243Z,14.91
2023-06-10T05:22:05.925Z,14.94
2023-06-10T05:22:38.597Z,14.94
2023-06-10T05:23:11.268Z,14.96
2023-06-10T05:23:43.964Z,14.98
2023-06-10T05:24:16.686Z,14.99
2023-06-10T05:24:49.409Z,14.99
2023-06-10T05:25:22.083Z,15.02
2023-06-10T05:25:54.759Z,15.06
2023-06-10T05:26:27.422Z,15.06
2023-06-10T05:27:00.110Z,15.09
2023-06-10T05:27:32.755Z,15.09
2023-06-10T05:28:05.427Z,15.10
2023-06-10T05:28:38.099Z,15.11
2023-06-10T05:29:10.765Z,15.13
2023-06-10T05:29:43.567Z,15.16
2023-06-10T05:30:16.244Z,15.19
2023-06-10T05:30:48.903Z,15.20
2023-06-10T05:31:21.625Z,15.20
2023-06-10T05:31:54.350Z,15.23
2023-06-10T05:32:27.050Z,15.27
2023-06-10T05:32:59.730Z,15.27
2023-06-10T05:33:32.401Z,15.32
2023-06-10T05:34:05.080Z,15.31
2023-06-10T05:34:37.744Z,15.32
2023-06-10T05:35:10.743Z,15.34
2023-06-10T05:35:37.134Z,15.35
2023-06-10T05:36:09.828Z,15.36
2023-06-10T05:36:42.486Z,15.39
2023-06-10T05:37:15.176Z,15.39
2023-06-10T05:37:47.841Z,15.43
2023-06-10T05:38:20.526Z,15.46
2023-06-10T05:38:53.207Z,15.46
2023-06-10T05:39:25.881Z,15.47
2023-06-10T05:39:58.552Z,15.50
2023-06-10T05:40:25.208Z,15.54
2023-06-10T05:40:57.974Z,15.59
2023-06-10T05:41:30.692Z,15.64
2023-06-10T05:42:03.356Z,15.67
2023-06-10T05:42:36.065Z,15.69
2023-06-10T05:43:08.731Z,15.71
2023-06-10T05:43:41.392Z,15.75
2023-06-10T05:44:14.399Z,15.76
2023-06-10T05:44:40.758Z,15.78
2023-06-10T05:45:13.426Z,15.83
2023-06-10T05:45:46.133Z,15.86
2023-06-10T05:46:18.893Z,15.86
2023-06-10T05:46:51.581Z,15.89
2023-06-10T05:47:24.279Z,15.89
2023-06-10T05:47:57.047Z,15.89
2023-06-10T05:48:29.738Z,15.89
2023-06-10T05:49:02.446Z,15.90
2023-06-10T05:49:35.081Z,15.92
2023-06-10T05:50:07.752Z,15.94
2023-06-10T05:50:40.423Z,15.96
2023-06-10T05:51:13.109Z,15.97
2023-06-10T05:51:45.773Z,16.00
2023-06-10T05:52:18.445Z,16.01
2023-06-10T05:52:51.126Z,16.00
2023-06-10T05:53:23.816Z,16.00
2023-06-10T05:53:56.483Z,16.00
2023-06-10T05:54:30.337Z,16.00
2023-06-10T05:54:56.659Z,15.97
2023-06-10T05:55:29.338Z,15.97
2023-06-10T05:56:01.996Z,16.01
2023-06-10T05:56:34.707Z,16.02
2023-06-10T05:57:07.378Z,16.04
2023-06-10T05:57:40.115Z,16.05
2023-06-10T05:58:11.155Z,16.04
2023-06-10T05:58:43.817Z,16.07
2023-06-10T05:59:16.499Z,16.08
2023-06-10T05:59:49.181Z,16.09
2023-06-10T06:00:21.849Z,16.11
2023-06-10T06:00:54.552Z,16.14
2023-06-10T06:01:27.388Z,16.14
2023-06-10T06:02:00.167Z,16.15
2023-06-10T06:02:32.969Z,16.17
2023-06-10T06:03:05.720Z,16.21
2023-06-10T06:03:38.617Z,16.23
2023-06-10T06:04:11.411Z,16.24
2023-06-10T06:04:44.123Z,16.25
2023-06-10T06:05:16.866Z,16.27
2023-06-10T06:05:49.581Z,16.33
2023-06-10T06:06:22.271Z,16.35
2023-06-10T06:06:54.944Z,16.38
2023-06-10T06:07:27.615Z,16.39
2023-06-10T06:08:00.267Z,16.42
2023-06-10T06:08:32.934Z,16.43
2023-06-10T06:09:05.603Z,16.46
2023-06-10T06:09:38.288Z,16.45
2023-06-10T06:10:10.973Z,16.46
2023-06-10T06:10:43.643Z,16.49
2023-06-10T06:11:16.330Z,16.53
2023-06-10T06:11:48.993Z,16.53
2023-06-10T06:12:21.785Z,16.56
2023-06-10T06:12:54.479Z,16.58
2023-06-10T06:13:27.134Z,16.60
2023-06-10T06:13:59.801Z,16.66
2023-06-10T06:14:32.469Z,16.64
2023-06-10T06:15:05.139Z,16.66
2023-06-10T06:15:37.905Z,16.66
2023-06-10T06:16:10.652Z,16.68
2023-06-10T06:16:43.366Z,16.67
2023-06-10T06:17:16.067Z,16.68
2023-06-10T06:17:48.762Z,16.67
2023-06-10T06:18:21.423Z,16.67
2023-06-10T06:18:54.088Z,16.66
2023-06-10T06:19:26.763Z,16.66
2023-06-10T06:19:59.435Z,16.68
2023-06-10T06:20:32.128Z,16.68
2023-06-10T06:21:04.761Z,16.66
2023-06-10T06:21:37.440Z,16.67
2023-06-10T06:22:10.112Z,16.71
2023-06-10T06:22:42.777Z,16.70
2023-06-10T06:23:09.658Z,16.73
2023-06-10T06:23:42.352Z,16.75
2023-06-10T06:24:15.151Z,16.78
2023-06-10T06:24:47.896Z,16.79
2023-06-10T06:25:20.699Z,16.81
2023-06-10T06:25:53.361Z,16.83
2023-06-10T06:26:26.057Z,16.91
2023-06-10T06:26:58.720Z,16.96
2023-06-10T06:27:31.376Z,16.94
2023-06-10T06:28:04.071Z,16.98
2023-06-10T06:28:36.734Z,17.01
2023-06-10T06:29:09.407Z,17.00
2023-06-10T06:29:42.069Z,17.01
2023-06-10T06:30:08.721Z,17.03
2023-06-10T06:30:41.381Z,17.03
2023-06-10T06:31:14.074Z,16.98
2023-06-10T06:31:46.778Z,17.00
2023-06-10T06:32:19.452Z,16.96
2023-06-10T06:32:52.244Z,16.96
2023-06-10T06:33:24.922Z,16.98
2023-06-10T06:33:57.759Z,16.98
2023-06-10T06:34:30.433Z,16.98
2023-06-10T06:35:03.112Z,17.00
2023-06-10T06:35:35.766Z,17.00
2023-06-10T06:36:08.438Z,16.96
2023-06-10T06:36:41.138Z,16.97
2023-06-10T06:37:13.796Z,16.97
2023-06-10T06:37:46.462Z,16.98
2023-06-10T06:38:19.126Z,16.98
2023-06-10T06:38:51.799Z,17.03
2023-06-10T06:39:24.456Z,17.04
2023-06-10T06:39:57.132Z,17.07
2023-06-10T06:40:29.807Z,17.08
2023-06-10T06:41:02.471Z,17.14
2023-06-10T06:41:35.167Z,17.16
2023-06-10T06:42:07.827Z,17.19
2023-06-10T06:42:40.497Z,17.19
2023-06-10T06:43:13.183Z,17.23
2023-06-10T06:43:45.877Z,17.26
2023-06-10T06:44:12.710Z,17.30
2023-06-10T06:44:45.380Z,17.31
2023-06-10T06:45:18.054Z,17.34
2023-06-10T06:45:50.801Z,17.38
2023-06-10T06:46:23.502Z,17.40
2023-06-10T06:46:56.160Z,17.43
2023-06-10T06:47:28.947Z,17.46
2023-06-10T06:48:01.678Z,17.48
2023-06-10T06:48:34.447Z,17.49
2023-06-10T06:49:07.118Z,17.51
2023-06-10T06:49:39.793Z,17.54
2023-06-10T06:50:12.464Z,17.58
2023-06-10T06:50:45.145Z,17.59
2023-06-10T06:51:17.853Z,17.64
2023-06-10T06:51:50.551Z,17.68
2023-06-10T06:52:23.222Z,17.72
2023-06-10T06:52:55.887Z,17.79
2023-06-10T06:53:31.696Z,17.84
2023-06-10T06:53:59.701Z,17.87
2023-06-10T06:54:32.375Z,17.95
2023-06-10T06:55:05.037Z,17.97
2023-06-10T06:55:37.725Z,18.00
2023-06-10T06:56:10.398Z,18.03
2023-06-10T06:56:43.079Z,18.08
2023-06-10T06:57:15.766Z,18.12
2023-06-10T06:57:48.426Z,18.20
2023-06-10T06:58:21.106Z,18.27
2023-06-10T06:58:55.518Z,18.35